Wetterdaten: aktuell Sonntag, 29.03.2020 05:25
Datum Zeit Temp. A. Feuchte A. Luftdruck Regen Wind Richtung Richtung Taupunkt Windchill Windben
29.03.2020 05:25 -1,3 C 90 % 1017,5 hPa 0,0 l/m 5,2 km/h (1 Bft) S 190 -2,7 C -1,3 C 16,1 km/h (3 Bft)
29.03.2020 05:20 -1,2 C 90 % 1017,5 hPa 0,0 l/m 7,1 km/h (2 Bft) N 360 -2,6 C -2,0 C 17,7 km/h (3 Bft)
29.03.2020 05:15 -1,2 C 90 % 1017,6 hPa 0,0 l/m 6,1 km/h (2 Bft) NO 49 -2,6 C -1,2 C 17,7 km/h (3 Bft)
29.03.2020 05:10 -1,0 C 90 % 1017,6 hPa 0,0 l/m 6,5 km/h (2 Bft) NW 317 -2,4 C -1,1 C 19,3 km/h (3 Bft)
29.03.2020 05:05 -0,9 C 89 % 1017,6 hPa 0,0 l/m 6,0 km/h (2 Bft) W-NW 294 -2,5 C -0,9 C 16,1 km/h (3 Bft)
29.03.2020 05:00 -0,8 C 90 % 1017,7 hPa 0,0 l/m 5,6 km/h (1 Bft) NW 315 -2,2 C -0,8 C 16,1 km/h (3 Bft)
29.03.2020 04:55 -0,8 C 90 % 1017,6 hPa 0,0 l/m 3,7 km/h (1 Bft) W-NW 291 -2,2 C -0,8 C 12,9 km/h (3 Bft)
29.03.2020 04:50 -0,8 C 89 % 1017,6 hPa 0,0 l/m 2,6 km/h (1 Bft) NO 41 -2,4 C -0,8 C 6,4 km/h (2 Bft)
29.03.2020 04:45 -0,9 C 89 % 1017,6 hPa 0,0 l/m 3,2 km/h (1 Bft) O-SO 105 -2,5 C -0,9 C 8,0 km/h (2 Bft)
29.03.2020 04:40 -0,9 C 89 % 1017,5 hPa 0,0 l/m 2,7 km/h (1 Bft) N-NW 342 -2,5 C -0,9 C 12,9 km/h (3 Bft)
29.03.2020 04:35 -0,9 C 89 % 1017,5 hPa 0,0 l/m 3,2 km/h (1 Bft) N 355 -2,5 C -0,9 C 11,3 km/h (2 Bft)
29.03.2020 04:30 -0,9 C 89 % 1017,5 hPa 0,0 l/m 1,6 km/h (1 Bft) NW 306 -2,5 C -0,9 C 8,0 km/h (2 Bft)
29.03.2020 04:25 -0,8 C 88 % 1017,5 hPa 0,0 l/m 2,3 km/h (1 Bft) N 355 -2,5 C -0,8 C 6,4 km/h (2 Bft)
29.03.2020 04:20 -0,7 C 89 % 1017,6 hPa 0,0 l/m 2,9 km/h (1 Bft) NW 318 -2,3 C -0,7 C 6,4 km/h (2 Bft)
29.03.2020 04:15 -0,7 C 88 % 1017,7 hPa 0,0 l/m 2,4 km/h (1 Bft) NW 321 -2,4 C -0,7 C 12,9 km/h (3 Bft)
29.03.2020 04:10 -0,6 C 88 % 1017,7 hPa 0,0 l/m 5,4 km/h (1 Bft) W-NW 292 -2,3 C -0,6 C 14,5 km/h (3 Bft)
29.03.2020 04:05 -0,5 C 88 % 1017,7 hPa 0,0 l/m 4,6 km/h (1 Bft) N-NW 340 -2,2 C -0,5 C 11,3 km/h (2 Bft)
29.03.2020 04:00 -0,4 C 87 % 1017,7 hPa 0,0 l/m 4,9 km/h (1 Bft) N-NW 330 -2,3 C -0,4 C 12,9 km/h (3 Bft)
29.03.2020 03:55 -0,3 C 87 % 1017,7 hPa 0,0 l/m 3,7 km/h (1 Bft) N-NW 334 -2,2 C -0,3 C 11,3 km/h (2 Bft)
29.03.2020 03:50 -0,3 C 87 % 1017,7 hPa 0,0 l/m 4,3 km/h (1 Bft) W 281 -2,2 C -0,3 C 14,5 km/h (3 Bft)
29.03.2020 03:45 -0,2 C 87 % 1017,8 hPa 0,0 l/m 2,9 km/h (1 Bft) W-NW 296 -2,1 C -0,2 C 8,0 km/h (2 Bft)
29.03.2020 03:40 -0,1 C 86 % 1017,7 hPa 0,0 l/m 3,7 km/h (1 Bft) W-NW 290 -2,2 C -0,1 C 11,3 km/h (2 Bft)
29.03.2020 03:35 0,1 C 86 % 1017,8 hPa 0,0 l/m 2,8 km/h (1 Bft) NW 316 -2,0 C 0,1 C 6,4 km/h (2 Bft)
29.03.2020 03:30 0,2 C 86 % 1017,8 hPa 0,0 l/m 4,1 km/h (1 Bft) W-NW 290 -1,9 C 0,2 C 12,9 km/h (3 Bft)
29.03.2020 03:25 0,3 C 86 % 1017,8 hPa 0,0 l/m 2,2 km/h (1 Bft) NW 311 -1,8 C 0,3 C 6,4 km/h (2 Bft)
29.03.2020 03:20 0,3 C 86 % 1017,8 hPa 0,0 l/m 2,4 km/h (1 Bft) W-NW 286 -1,8 C 0,3 C 11,3 km/h (2 Bft)
29.03.2020 03:15 0,3 C 86 % 1017,8 hPa 0,0 l/m 1,6 km/h (1 Bft) N-NW 331 -1,8 C 0,3 C 6,4 km/h (2 Bft)
29.03.2020 03:10 0,3 C 86 % 1017,8 hPa 0,0 l/m 1,2 km/h (1 Bft) NW 315 -1,8 C 0,3 C 4,8 km/h (1 Bft)
29.03.2020 03:05 0,3 C 86 % 1017,9 hPa 0,0 l/m 1,2 km/h (1 Bft) W-NW 295 -1,8 C 0,3 C 4,8 km/h (1 Bft)
29.03.2020 03:00 0,3 C 86 % 1017,8 hPa 0,0 l/m 1,7 km/h (1 Bft) W-SW 240 -1,8 C 0,3 C 4,8 km/h (1 Bft)
29.03.2020 01:55 0,3 C 86 % 1017,9 hPa 0,0 l/m 2,3 km/h (1 Bft) W-NW 294 -1,8 C 0,3 C 11,3 km/h (2 Bft)
29.03.2020 01:50 0,2 C 86 % 1017,9 hPa 0,0 l/m 0,4 km/h (0 Bft) W-NW 294 -1,9 C 0,2 C 3,2 km/h (1 Bft)
29.03.2020 01:45 0,1 C 86 % 1017,9 hPa 0,0 l/m 1,0 km/h (0 Bft) W 272 -2,0 C 0,1 C 4,8 km/h (1 Bft)
29.03.2020 01:40 -0,1 C 86 % 1018,0 hPa 0,0 l/m 1,8 km/h (1 Bft) W 264 -2,2 C -0,1 C 6,4 km/h (2 Bft)
29.03.2020 01:35 -0,3 C 86 % 1018,0 hPa 0,0 l/m 1,9 km/h (1 Bft) NW 326 -2,3 C -0,3 C 6,4 km/h (2 Bft)
29.03.2020 01:30 -0,2 C 85 % 1018,0 hPa 0,0 l/m 1,9 km/h (1 Bft) W-NW 290 -2,4 C -0,2 C 3,2 km/h (1 Bft)
29.03.2020 01:25 -0,1 C 85 % 1017,9 hPa 0,0 l/m 1,4 km/h (1 Bft) W 275 -2,3 C -0,1 C 4,8 km/h (1 Bft)
29.03.2020 01:20 -0,1 C 85 % 1018,1 hPa 0,0 l/m 0,8 km/h (0 Bft) NW 304 -2,3 C -0,1 C 4,8 km/h (1 Bft)
29.03.2020 01:15 -0,1 C 85 % 1018,0 hPa 0,0 l/m 1,0 km/h (0 Bft) W-NW 290 -2,3 C -0,1 C 4,8 km/h (1 Bft)
29.03.2020 01:10 0,0 C 85 % 1017,9 hPa 0,0 l/m 1,7 km/h (1 Bft) W-NW 302 -2,2 C 0,0 C 8,0 km/h (2 Bft)
29.03.2020 01:05 0,0 C 85 % 1017,8 hPa 0,0 l/m 2,2 km/h (1 Bft) W-NW 301 -2,2 C 0,0 C 4,8 km/h (1 Bft)
29.03.2020 01:00 -0,2 C 85 % 1017,8 hPa 0,0 l/m 0,7 km/h (0 Bft) W 261 -2,4 C -0,2 C 4,8 km/h (1 Bft)
29.03.2020 00:55 -0,3 C 85 % 1017,8 hPa 0,0 l/m 1,3 km/h (1 Bft) W-NW 292 -2,5 C -0,3 C 4,8 km/h (1 Bft)
29.03.2020 00:50 -0,2 C 84 % 1017,8 hPa 0,0 l/m 1,0 km/h (0 Bft) N 10 -2,6 C -0,2 C 4,8 km/h (1 Bft)
29.03.2020 00:45 -0,2 C 84 % 1017,9 hPa 0,0 l/m 0,2 km/h (0 Bft) N-NW 341 -2,6 C -0,2 C 1,6 km/h (1 Bft)
29.03.2020 00:40 0,0 C 83 % 1018,1 hPa 0,0 l/m 1,3 km/h (1 Bft) N-NW 341 -2,5 C 0,0 C 3,2 km/h (1 Bft)
29.03.2020 00:35 0,0 C 83 % 1018,1 hPa 0,0 l/m 1,9 km/h (1 Bft) N-NW 335 -2,5 C 0,0 C 3,2 km/h (1 Bft)
29.03.2020 00:30 0,1 C 83 % 1018,1 hPa 0,0 l/m 1,9 km/h (1 Bft) N 355 -2,4 C 0,1 C 6,4 km/h (2 Bft)
29.03.2020 00:25 0,2 C 83 % 1018,2 hPa 0,0 l/m 0,8 km/h (0 Bft) NW 305 -2,3 C 0,2 C 4,8 km/h (1 Bft)
29.03.2020 00:20 0,2 C 83 % 1018,2 hPa 0,0 l/m 1,6 km/h (1 Bft) S-SW 198 -2,3 C 0,2 C 6,4 km/h (2 Bft)
29.03.2020 00:15 0,3 C 82 % 1018,2 hPa 0,0 l/m 2,7 km/h (1 Bft) W-NW 284 -2,4 C 0,3 C 8,0 km/h (2 Bft)
29.03.2020 00:10 0,3 C 82 % 1018,2 hPa 0,0 l/m 0,9 km/h (0 Bft) W-NW 299 -2,4 C 0,3 C 4,8 km/h (1 Bft)
29.03.2020 00:05 0,3 C 82 % 1018,2 hPa 0,0 l/m 1,1 km/h (1 Bft) W 263 -2,4 C 0,3 C 4,8 km/h (1 Bft)
29.03.2020 00:00 0,3 C 81 % 1018,2 hPa 0,0 l/m 0,1 km/h (0 Bft) NO 36 -2,6 C 0,3 C 1,6 km/h (1 Bft)
28.03.2020 23:55 0,3 C 80 % 1018,2 hPa 0,0 l/m 0,5 km/h (0 Bft) NW 325 -2,7 C 0,3 C 3,2 km/h (1 Bft)
28.03.2020 23:50 0,4 C 80 % 1018,2 hPa 0,0 l/m 0,2 km/h (0 Bft) NW 325 -2,6 C 0,4 C 3,2 km/h (1 Bft)
28.03.2020 23:45 0,6 C 80 % 1018,3 hPa 0,0 l/m 0,7 km/h (0 Bft) NW 325 -2,4 C 0,6 C 3,2 km/h (1 Bft)
28.03.2020 23:40 0,7 C 79 % 1018,3 hPa 0,0 l/m 1,4 km/h (1 Bft) N-NW 333 -2,5 C 0,7 C 4,8 km/h (1 Bft)
28.03.2020 23:35 0,5 C 79 % 1018,3 hPa 0,0 l/m 0,7 km/h (0 Bft) N 360 -2,7 C 0,5 C 8,0 km/h (2 Bft)
28.03.2020 23:30 0,6 C 79 % 1018,2 hPa 0,0 l/m 0,0 km/h (0 Bft) NW 319 -2,6 C 0,6 C 0,0 km/h (0 Bft)
28.03.2020 23:25 0,8 C 78 % 1018,3 hPa 0,0 l/m 0,0 km/h (0 Bft) NW 319 -2,6 C 0,8 C 0,0 km/h (0 Bft)
28.03.2020 23:20 0,8 C 78 % 1018,3 hPa 0,0 l/m 0,7 km/h (0 Bft) NW 311 -2,6 C 0,8 C 3,2 km/h (1 Bft)
28.03.2020 23:15 1,1 C 78 % 1018,3 hPa 0,0 l/m 1,6 km/h (1 Bft) NW 311 -2,3 C 1,1 C 3,2 km/h (1 Bft)
28.03.2020 23:10 1,1 C 77 % 1018,3 hPa 0,0 l/m 2,8 km/h (1 Bft) O-NO 61 -2,5 C 1,1 C 11,3 km/h (2 Bft)
28.03.2020 23:05 1,2 C 77 % 1018,3 hPa 0,0 l/m 2,1 km/h (1 Bft) W-NW 287 -2,4 C 1,2 C 4,8 km/h (1 Bft)
28.03.2020 23:00 1,3 C 76 % 1018,4 hPa 0,0 l/m 2,3 km/h (1 Bft) N-NW 341 -2,5 C 1,3 C 6,4 km/h (2 Bft)
28.03.2020 22:55 1,4 C 76 % 1018,4 hPa 0,0 l/m 4,0 km/h (1 Bft) NW 321 -2,4 C 1,4 C 8,0 km/h (2 Bft)
28.03.2020 22:50 1,5 C 76 % 1018,4 hPa 0,0 l/m 2,2 km/h (1 Bft) W-NW 288 -2,3 C 1,5 C 4,8 km/h (1 Bft)
28.03.2020 22:45 1,4 C 76 % 1018,5 hPa 0,0 l/m 2,5 km/h (1 Bft) W-SW 257 -2,4 C 1,4 C 11,3 km/h (2 Bft)
28.03.2020 22:40 1,5 C 75 % 1018,5 hPa 0,0 l/m 0,9 km/h (0 Bft) W 264 -2,4 C 1,5 C 3,2 km/h (1 Bft)
28.03.2020 22:35 1,6 C 75 % 1018,5 hPa 0,0 l/m 1,7 km/h (1 Bft) SW 227 -2,3 C 1,6 C 3,2 km/h (1 Bft)
28.03.2020 22:30 1,7 C 74 % 1018,5 hPa 0,0 l/m 1,8 km/h (1 Bft) W-NW 291 -2,4 C 1,7 C 4,8 km/h (1 Bft)
28.03.2020 22:25 1,8 C 74 % 1018,6 hPa 0,0 l/m 1,8 km/h (1 Bft) NW 311 -2,3 C 1,8 C 8,0 km/h (2 Bft)
28.03.2020 22:20 1,9 C 74 % 1018,4 hPa 0,0 l/m 2,2 km/h (1 Bft) W 272 -2,2 C 1,9 C 4,8 km/h (1 Bft)
28.03.2020 22:15 2,0 C 73 % 1018,5 hPa 0,0 l/m 1,9 km/h (1 Bft) W 281 -2,3 C 2,0 C 4,8 km/h (1 Bft)
28.03.2020 22:10 2,2 C 73 % 1018,5 hPa 0,0 l/m 0,6 km/h (0 Bft) W 279 -2,1 C 2,2 C 3,2 km/h (1 Bft)
28.03.2020 22:05 2,2 C 73 % 1018,5 hPa 0,0 l/m 1,4 km/h (1 Bft) W 275 -2,1 C 2,2 C 4,8 km/h (1 Bft)
28.03.2020 22:00 2,1 C 73 % 1018,5 hPa 0,0 l/m 0,9 km/h (0 Bft) NW 311 -2,2 C 2,1 C 3,2 km/h (1 Bft)
28.03.2020 21:55 2,1 C 73 % 1018,5 hPa 0,0 l/m 3,1 km/h (1 Bft) W-NW 297 -2,2 C 2,1 C 11,3 km/h (2 Bft)
28.03.2020 21:50 2,1 C 73 % 1018,5 hPa 0,0 l/m 1,2 km/h (1 Bft) W-NW 290 -2,2 C 2,1 C 4,8 km/h (1 Bft)
28.03.2020 21:45 2,3 C 72 % 1018,5 hPa 0,0 l/m 1,5 km/h (1 Bft) NW 312 -2,2 C 2,3 C 4,8 km/h (1 Bft)
28.03.2020 21:40 2,3 C 73 % 1018,5 hPa 0,0 l/m 2,8 km/h (1 Bft) NW 311 -2,0 C 2,3 C 8,0 km/h (2 Bft)
28.03.2020 21:35 2,3 C 73 % 1018,7 hPa 0,0 l/m 2,6 km/h (1 Bft) W 267 -2,0 C 2,3 C 4,8 km/h (1 Bft)
28.03.2020 21:30 2,3 C 73 % 1018,5 hPa 0,0 l/m 2,3 km/h (1 Bft) W-NW 284 -2,0 C 2,3 C 4,8 km/h (1 Bft)
28.03.2020 21:25 2,4 C 72 % 1018,6 hPa 0,0 l/m 1,8 km/h (1 Bft) SW 219 -2,1 C 2,4 C 4,8 km/h (1 Bft)
28.03.2020 21:20 2,5 C 72 % 1018,5 hPa 0,0 l/m 2,0 km/h (1 Bft) O-SO 120 -2,0 C 2,5 C 6,4 km/h (2 Bft)
28.03.2020 21:15 2,6 C 72 % 1018,5 hPa 0,0 l/m 1,7 km/h (1 Bft) NW 306 -1,9 C 2,6 C 4,8 km/h (1 Bft)
28.03.2020 21:10 2,7 C 72 % 1018,4 hPa 0,0 l/m 2,3 km/h (1 Bft) W-SW 240 -1,8 C 2,7 C 6,4 km/h (2 Bft)
28.03.2020 21:05 2,7 C 72 % 1018,5 hPa 0,0 l/m 2,6 km/h (1 Bft) W 278 -1,8 C 2,7 C 12,9 km/h (3 Bft)
28.03.2020 21:00 2,9 C 72 % 1018,4 hPa 0,0 l/m 2,5 km/h (1 Bft) W-NW 293 -1,6 C 2,9 C 8,0 km/h (2 Bft)
28.03.2020 20:55 2,9 C 72 % 1018,3 hPa 0,0 l/m 4,1 km/h (1 Bft) SO 130 -1,6 C 2,9 C 14,5 km/h (3 Bft)
28.03.2020 20:50 2,8 C 73 % 1018,3 hPa 0,0 l/m 3,8 km/h (1 Bft) NW 306 -1,5 C 2,8 C 11,3 km/h (2 Bft)
28.03.2020 20:45 2,9 C 73 % 1018,3 hPa 0,0 l/m 4,3 km/h (1 Bft) NW 324 -1,5 C 2,9 C 12,9 km/h (3 Bft)
28.03.2020 20:40 2,9 C 73 % 1018,4 hPa 0,0 l/m 3,5 km/h (1 Bft) NW 306 -1,5 C 2,9 C 16,1 km/h (3 Bft)
28.03.2020 20:35 2,9 C 73 % 1018,4 hPa 0,0 l/m 2,9 km/h (1 Bft) W 263 -1,5 C 2,9 C 8,0 km/h (2 Bft)
28.03.2020 20:30 2,9 C 74 % 1018,4 hPa 0,0 l/m 3,1 km/h (1 Bft) N-NW 340 -1,3 C 2,9 C 9,7 km/h (2 Bft)
28.03.2020 20:25 2,9 C 74 % 1018,4 hPa 0,0 l/m 2,7 km/h (1 Bft) S 186 -1,3 C 2,9 C 11,3 km/h (2 Bft)
28.03.2020 20:20 2,9 C 74 % 1018,4 hPa 0,0 l/m 3,0 km/h (1 Bft) NO 46 -1,3 C 2,9 C 11,3 km/h (2 Bft)
28.03.2020 20:15 2,9 C 74 % 1018,5 hPa 0,0 l/m 3,2 km/h (1 Bft) NW 306 -1,3 C 2,9 C 12,9 km/h (3 Bft)
28.03.2020 20:10 3,0 C 74 % 1018,5 hPa 0,0 l/m 2,7 km/h (1 Bft) N-NO 16 -1,2 C 3,0 C 8,0 km/h (2 Bft)
_ Min-Zeit 06:00 14:00 16:30 - 06:00 - - 06:00 06:00 06:00
Minimum _ -2,6 C 50 % 1017,4 hPa - 0,0 km/h (0 Bft) - - -3,7 C -2,6 C 0,0 km/h (0 Bft)
_ Max-Zeit 13:40 06:00 06:40 06:00 14:45 - - 08:30 13:40 14:45
Maximum _ 10,8 C 92 % 1019,7 hPa 0,0 l/m 10,7 km/h
W-NW (2 Bft)
- - 2,2 C 10,8 C 24,1 km/h
N-NO (4 Bft)
Durchschnitt _ 3,7 C 73 % 1018,5 hPa #0,0 l/m 3,3 km/h (1 Bft) N - -0,9 C 3,6 C 9,1 km/h (2 Bft)